sensor_id;sensor_type;location;lat;lon;timestamp;P1;durP1;ratioP1;P2;durP2;ratioP2
31906;SDS011;18455;50.858;13.662;2023-08-24T00:04:13;5.78;;;3.90;;
31906;SDS011;18455;50.858;13.662;2023-08-24T00:09:14;5.30;;;4.72;;
31906;SDS011;18455;50.858;13.662;2023-08-24T00:14:15;6.68;;;4.32;;
31906;SDS011;18455;50.858;13.662;2023-08-24T00:19:15;7.00;;;4.18;;
31906;SDS011;18455;50.858;13.662;2023-08-24T00:24:16;5.20;;;4.22;;
31906;SDS011;18455;50.858;13.662;2023-08-24T00:29:16;5.97;;;4.75;;
31906;SDS011;18455;50.858;13.662;2023-08-24T00:34:17;7.43;;;4.40;;
31906;SDS011;18455;50.858;13.662;2023-08-24T00:39:17;7.68;;;4.60;;
31906;SDS011;18455;50.858;13.662;2023-08-24T00:44:17;5.18;;;4.68;;
31906;SDS011;18455;50.858;13.662;2023-08-24T00:49:21;6.35;;;4.53;;
31906;SDS011;18455;50.858;13.662;2023-08-24T00:54:21;5.07;;;4.55;;
31906;SDS011;18455;50.858;13.662;2023-08-24T00:59:22;9.20;;;4.68;;
31906;SDS011;18455;50.858;13.662;2023-08-24T01:04:23;5.45;;;4.53;;
31906;SDS011;18455;50.858;13.662;2023-08-24T01:09:23;6.25;;;4.78;;
31906;SDS011;18455;50.858;13.662;2023-08-24T01:14:35;6.97;;;5.28;;
31906;SDS011;18455;50.858;13.662;2023-08-24T01:19:51;10.57;;;5.13;;
31906;SDS011;18455;50.858;13.662;2023-08-24T01:25:00;7.22;;;5.38;;
31906;SDS011;18455;50.858;13.662;2023-08-24T01:30:04;5.97;;;5.00;;
31906;SDS011;18455;50.858;13.662;2023-08-24T01:35:06;8.93;;;5.50;;
31906;SDS011;18455;50.858;13.662;2023-08-24T01:40:17;6.20;;;5.18;;
31906;SDS011;18455;50.858;13.662;2023-08-24T01:45:27;5.80;;;5.20;;
31906;SDS011;18455;50.858;13.662;2023-08-24T01:50:30;6.75;;;4.90;;
31906;SDS011;18455;50.858;13.662;2023-08-24T01:55:31;7.53;;;5.03;;
31906;SDS011;18455;50.858;13.662;2023-08-24T02:00:31;8.15;;;4.68;;
31906;SDS011;18455;50.858;13.662;2023-08-24T02:05:32;7.00;;;5.57;;
31906;SDS011;18455;50.858;13.662;2023-08-24T02:10:32;8.43;;;5.65;;
31906;SDS011;18455;50.858;13.662;2023-08-24T02:15:33;6.55;;;5.55;;
31906;SDS011;18455;50.858;13.662;2023-08-24T02:20:37;10.05;;;5.18;;
31906;SDS011;18455;50.858;13.662;2023-08-24T02:25:41;6.93;;;5.45;;
31906;SDS011;18455;50.858;13.662;2023-08-24T02:30:42;7.15;;;5.35;;
31906;SDS011;18455;50.858;13.662;2023-08-24T02:35:43;6.13;;;5.47;;
31906;SDS011;18455;50.858;13.662;2023-08-24T02:40:44;8.85;;;5.75;;
31906;SDS011;18455;50.858;13.662;2023-08-24T02:45:45;10.77;;;6.50;;
31906;SDS011;18455;50.858;13.662;2023-08-24T02:50:46;7.70;;;6.00;;
31906;SDS011;18455;50.858;13.662;2023-08-24T02:55:48;14.10;;;6.15;;
31906;SDS011;18455;50.858;13.662;2023-08-24T03:00:49;11.63;;;5.80;;
31906;SDS011;18455;50.858;13.662;2023-08-24T03:05:56;16.58;;;6.28;;
31906;SDS011;18455;50.858;13.662;2023-08-24T03:10:58;7.00;;;5.75;;
31906;SDS011;18455;50.858;13.662;2023-08-24T03:16:02;6.05;;;5.05;;
31906;SDS011;18455;50.858;13.662;2023-08-24T03:21:04;8.73;;;5.95;;
31906;SDS011;18455;50.858;13.662;2023-08-24T03:26:06;8.77;;;6.35;;
31906;SDS011;18455;50.858;13.662;2023-08-24T03:31:07;7.63;;;5.97;;
31906;SDS011;18455;50.858;13.662;2023-08-24T03:36:07;6.93;;;5.68;;
31906;SDS011;18455;50.858;13.662;2023-08-24T03:41:08;7.15;;;6.10;;
31906;SDS011;18455;50.858;13.662;2023-08-24T03:46:08;8.68;;;6.65;;
31906;SDS011;18455;50.858;13.662;2023-08-24T03:51:09;7.82;;;6.30;;
31906;SDS011;18455;50.858;13.662;2023-08-24T03:56:10;7.00;;;6.30;;
31906;SDS011;18455;50.858;13.662;2023-08-24T04:01:11;6.25;;;5.57;;
31906;SDS011;18455;50.858;13.662;2023-08-24T04:06:11;6.65;;;5.80;;
31906;SDS011;18455;50.858;13.662;2023-08-24T04:11:12;8.50;;;6.28;;
31906;SDS011;18455;50.858;13.662;2023-08-24T04:16:12;9.40;;;6.55;;
31906;SDS011;18455;50.858;13.662;2023-08-24T04:21:13;7.28;;;6.32;;
31906;SDS011;18455;50.858;13.662;2023-08-24T04:26:13;12.32;;;6.50;;
31906;SDS011;18455;50.858;13.662;2023-08-24T04:31:14;7.30;;;6.32;;
31906;SDS011;18455;50.858;13.662;2023-08-24T04:36:14;9.38;;;6.53;;
31906;SDS011;18455;50.858;13.662;2023-08-24T04:41:15;6.90;;;6.18;;
31906;SDS011;18455;50.858;13.662;2023-08-24T04:46:15;8.93;;;6.25;;
31906;SDS011;18455;50.858;13.662;2023-08-24T04:51:16;7.13;;;5.93;;
31906;SDS011;18455;50.858;13.662;2023-08-24T04:56:17;8.45;;;5.90;;
31906;SDS011;18455;50.858;13.662;2023-08-24T05:01:19;6.38;;;5.75;;
31906;SDS011;18455;50.858;13.662;2023-08-24T05:06:19;8.32;;;5.78;;
31906;SDS011;18455;50.858;13.662;2023-08-24T05:11:21;6.57;;;5.22;;
31906;SDS011;18455;50.858;13.662;2023-08-24T05:16:24;9.10;;;5.53;;
31906;SDS011;18455;50.858;13.662;2023-08-24T05:21:24;5.72;;;4.82;;
31906;SDS011;18455;50.858;13.662;2023-08-24T05:26:25;5.35;;;4.78;;
31906;SDS011;18455;50.858;13.662;2023-08-24T05:31:25;5.95;;;4.80;;
31906;SDS011;18455;50.858;13.662;2023-08-24T05:36:25;6.75;;;4.70;;
31906;SDS011;18455;50.858;13.662;2023-08-24T05:41:26;14.63;;;5.00;;
31906;SDS011;18455;50.858;13.662;2023-08-24T05:46:26;6.15;;;4.78;;
31906;SDS011;18455;50.858;13.662;2023-08-24T05:51:27;6.68;;;3.90;;
31906;SDS011;18455;50.858;13.662;2023-08-24T05:56:27;6.53;;;3.63;;
31906;SDS011;18455;50.858;13.662;2023-08-24T06:01:28;6.35;;;3.40;;
31906;SDS011;18455;50.858;13.662;2023-08-24T06:06:28;6.63;;;3.30;;
31906;SDS011;18455;50.858;13.662;2023-08-24T06:11:29;7.68;;;3.25;;
31906;SDS011;18455;50.858;13.662;2023-08-24T06:16:29;8.45;;;3.30;;
31906;SDS011;18455;50.858;13.662;2023-08-24T06:21:30;4.72;;;3.45;;
31906;SDS011;18455;50.858;13.662;2023-08-24T06:26:30;6.65;;;3.33;;
31906;SDS011;18455;50.858;13.662;2023-08-24T06:31:31;6.25;;;3.20;;
31906;SDS011;18455;50.858;13.662;2023-08-24T06:36:33;6.88;;;3.40;;
31906;SDS011;18455;50.858;13.662;2023-08-24T06:41:36;5.68;;;2.85;;
31906;SDS011;18455;50.858;13.662;2023-08-24T06:46:41;4.80;;;3.28;;
31906;SDS011;18455;50.858;13.662;2023-08-24T06:51:41;4.43;;;2.78;;
31906;SDS011;18455;50.858;13.662;2023-08-24T06:56:42;14.02;;;3.40;;
31906;SDS011;18455;50.858;13.662;2023-08-24T07:01:43;4.55;;;2.60;;
31906;SDS011;18455;50.858;13.662;2023-08-24T07:06:43;3.88;;;2.50;;
31906;SDS011;18455;50.858;13.662;2023-08-24T07:11:44;4.50;;;2.40;;
31906;SDS011;18455;50.858;13.662;2023-08-24T07:16:44;3.88;;;2.45;;
31906;SDS011;18455;50.858;13.662;2023-08-24T07:21:47;5.07;;;2.33;;
31906;SDS011;18455;50.858;13.662;2023-08-24T07:26:48;2.95;;;2.33;;
31906;SDS011;18455;50.858;13.662;2023-08-24T07:31:48;3.10;;;2.20;;
31906;SDS011;18455;50.858;13.662;2023-08-24T07:36:49;3.03;;;2.10;;
31906;SDS011;18455;50.858;13.662;2023-08-24T07:41:49;3.45;;;2.10;;
31906;SDS011;18455;50.858;13.662;2023-08-24T07:46:50;3.10;;;2.22;;
31906;SDS011;18455;50.858;13.662;2023-08-24T07:51:50;4.68;;;2.17;;
31906;SDS011;18455;50.858;13.662;2023-08-24T07:56:51;6.55;;;2.80;;
31906;SDS011;18455;50.858;13.662;2023-08-24T08:01:51;7.55;;;4.05;;
31906;SDS011;18455;50.858;13.662;2023-08-24T08:06:52;4.68;;;2.90;;
31906;SDS011;18455;50.858;13.662;2023-08-24T08:11:53;2.80;;;2.40;;
31906;SDS011;18455;50.858;13.662;2023-08-24T08:16:54;3.10;;;2.55;;
31906;SDS011;18455;50.858;13.662;2023-08-24T08:21:54;5.13;;;2.70;;
31906;SDS011;18455;50.858;13.662;2023-08-24T08:26:54;3.67;;;2.10;;
31906;SDS011;18455;50.858;13.662;2023-08-24T08:31:55;7.80;;;2.45;;
31906;SDS011;18455;50.858;13.662;2023-08-24T08:36:55;2.85;;;2.10;;
31906;SDS011;18455;50.858;13.662;2023-08-24T08:41:57;8.45;;;2.75;;
31906;SDS011;18455;50.858;13.662;2023-08-24T08:46:57;6.93;;;2.38;;
31906;SDS011;18455;50.858;13.662;2023-08-24T08:51:58;9.68;;;2.80;;
31906;SDS011;18455;50.858;13.662;2023-08-24T08:56:59;2.70;;;2.08;;
31906;SDS011;18455;50.858;13.662;2023-08-24T09:02:03;4.63;;;2.40;;
31906;SDS011;18455;50.858;13.662;2023-08-24T09:07:04;5.35;;;2.28;;
31906;SDS011;18455;50.858;13.662;2023-08-24T09:12:10;3.03;;;2.00;;
31906;SDS011;18455;50.858;13.662;2023-08-24T09:17:10;7.18;;;2.75;;
31906;SDS011;18455;50.858;13.662;2023-08-24T09:22:19;6.75;;;2.17;;
31906;SDS011;18455;50.858;13.662;2023-08-24T09:27:21;2.47;;;2.15;;
31906;SDS011;18455;50.858;13.662;2023-08-24T09:32:27;6.22;;;2.60;;
31906;SDS011;18455;50.858;13.662;2023-08-24T09:37:31;5.20;;;2.47;;
31906;SDS011;18455;50.858;13.662;2023-08-24T09:42:39;5.32;;;2.90;;
31906;SDS011;18455;50.858;13.662;2023-08-24T09:47:51;5.40;;;2.50;;
31906;SDS011;18455;50.858;13.662;2023-08-24T09:53:21;6.20;;;2.30;;
31906;SDS011;18455;50.858;13.662;2023-08-24T09:58:25;5.60;;;2.30;;
31906;SDS011;18455;50.858;13.662;2023-08-24T10:03:28;5.85;;;2.40;;
31906;SDS011;18455;50.858;13.662;2023-08-24T10:08:32;3.58;;;2.60;;
31906;SDS011;18455;50.858;13.662;2023-08-24T10:13:44;5.75;;;2.80;;
31906;SDS011;18455;50.858;13.662;2023-08-24T10:19:07;5.38;;;2.58;;
31906;SDS011;18455;50.858;13.662;2023-08-24T10:24:12;4.72;;;2.28;;
31906;SDS011;18455;50.858;13.662;2023-08-24T10:29:13;8.63;;;3.20;;
31906;SDS011;18455;50.858;13.662;2023-08-24T10:34:16;11.00;;;3.20;;
31906;SDS011;18455;50.858;13.662;2023-08-24T10:39:49;6.82;;;2.90;;
31906;SDS011;18455;50.858;13.662;2023-08-24T10:45:13;4.47;;;2.70;;
31906;SDS011;18455;50.858;13.662;2023-08-24T10:50:15;6.63;;;3.20;;
31906;SDS011;18455;50.858;13.662;2023-08-24T10:55:26;5.22;;;3.00;;
31906;SDS011;18455;50.858;13.662;2023-08-24T11:00:28;4.25;;;2.58;;
31906;SDS011;18455;50.858;13.662;2023-08-24T11:05:31;6.68;;;3.10;;
31906;SDS011;18455;50.858;13.662;2023-08-24T11:10:47;6.75;;;3.00;;
31906;SDS011;18455;50.858;13.662;2023-08-24T11:15:55;5.70;;;3.40;;
31906;SDS011;18455;50.858;13.662;2023-08-24T11:21:05;7.00;;;3.00;;
31906;SDS011;18455;50.858;13.662;2023-08-24T11:26:08;8.40;;;3.45;;
31906;SDS011;18455;50.858;13.662;2023-08-24T11:31:09;4.18;;;2.85;;
31906;SDS011;18455;50.858;13.662;2023-08-24T11:36:13;5.80;;;3.05;;
31906;SDS011;18455;50.858;13.662;2023-08-24T11:41:21;5.70;;;2.97;;
31906;SDS011;18455;50.858;13.662;2023-08-24T11:46:21;4.28;;;2.97;;
31906;SDS011;18455;50.858;13.662;2023-08-24T11:51:23;5.65;;;3.13;;
31906;SDS011;18455;50.858;13.662;2023-08-24T11:56:27;4.45;;;2.90;;
31906;SDS011;18455;50.858;13.662;2023-08-24T12:01:30;4.88;;;2.88;;
31906;SDS011;18455;50.858;13.662;2023-08-24T12:06:37;4.53;;;3.17;;
31906;SDS011;18455;50.858;13.662;2023-08-24T12:11:42;8.18;;;3.00;;
31906;SDS011;18455;50.858;13.662;2023-08-24T12:16:43;7.53;;;3.20;;
31906;SDS011;18455;50.858;13.662;2023-08-24T12:22:17;6.15;;;3.20;;
31906;SDS011;18455;50.858;13.662;2023-08-24T12:27:25;8.65;;;3.42;;
31906;SDS011;18455;50.858;13.662;2023-08-24T12:32:28;9.48;;;3.72;;
31906;SDS011;18455;50.858;13.662;2023-08-24T12:38:47;5.90;;;3.92;;
31906;SDS011;18455;50.858;13.662;2023-08-24T12:43:51;8.23;;;3.38;;
31906;SDS011;18455;50.858;13.662;2023-08-24T12:48:55;9.65;;;3.60;;
31906;SDS011;18455;50.858;13.662;2023-08-24T12:53:55;9.68;;;3.88;;
31906;SDS011;18455;50.858;13.662;2023-08-24T12:59:25;8.95;;;3.45;;
31906;SDS011;18455;50.858;13.662;2023-08-24T13:04:26;9.70;;;2.78;;
31906;SDS011;18455;50.858;13.662;2023-08-24T13:09:29;11.57;;;3.58;;
31906;SDS011;18455;50.858;13.662;2023-08-24T13:14:29;7.85;;;3.35;;
31906;SDS011;18455;50.858;13.662;2023-08-24T13:19:30;9.73;;;3.55;;
31906;SDS011;18455;50.858;13.662;2023-08-24T13:24:30;5.50;;;2.70;;
31906;SDS011;18455;50.858;13.662;2023-08-24T13:29:31;9.35;;;3.40;;
31906;SDS011;18455;50.858;13.662;2023-08-24T13:34:31;6.65;;;3.72;;
31906;SDS011;18455;50.858;13.662;2023-08-24T13:39:32;5.25;;;3.05;;
31906;SDS011;18455;50.858;13.662;2023-08-24T13:44:33;10.00;;;3.10;;
31906;SDS011;18455;50.858;13.662;2023-08-24T13:49:33;4.93;;;2.60;;
31906;SDS011;18455;50.858;13.662;2023-08-24T13:54:34;7.80;;;2.53;;
31906;SDS011;18455;50.858;13.662;2023-08-24T13:59:37;3.28;;;2.75;;
31906;SDS011;18455;50.858;13.662;2023-08-24T14:04:38;4.60;;;2.55;;
31906;SDS011;18455;50.858;13.662;2023-08-24T14:09:38;13.88;;;3.17;;
31906;SDS011;18455;50.858;13.662;2023-08-24T14:14:39;9.45;;;2.55;;
31906;SDS011;18455;50.858;13.662;2023-08-24T14:19:39;8.10;;;2.38;;
31906;SDS011;18455;50.858;13.662;2023-08-24T14:24:40;5.68;;;2.20;;
31906;SDS011;18455;50.858;13.662;2023-08-24T14:29:41;6.28;;;2.72;;
31906;SDS011;18455;50.858;13.662;2023-08-24T14:34:41;5.13;;;2.35;;
31906;SDS011;18455;50.858;13.662;2023-08-24T14:39:41;7.70;;;2.45;;
31906;SDS011;18455;50.858;13.662;2023-08-24T14:44:42;7.03;;;2.40;;
31906;SDS011;18455;50.858;13.662;2023-08-24T14:49:43;4.20;;;2.22;;
31906;SDS011;18455;50.858;13.662;2023-08-24T14:54:43;4.88;;;2.20;;
31906;SDS011;18455;50.858;13.662;2023-08-24T14:59:45;4.38;;;2.53;;
31906;SDS011;18455;50.858;13.662;2023-08-24T15:04:45;8.13;;;2.83;;
31906;SDS011;18455;50.858;13.662;2023-08-24T15:09:46;6.70;;;2.33;;
31906;SDS011;18455;50.858;13.662;2023-08-24T15:15:00;4.82;;;2.38;;
31906;SDS011;18455;50.858;13.662;2023-08-24T15:20:03;8.25;;;2.22;;
31906;SDS011;18455;50.858;13.662;2023-08-24T15:25:06;6.50;;;2.55;;
31906;SDS011;18455;50.858;13.662;2023-08-24T15:30:07;4.88;;;2.30;;
31906;SDS011;18455;50.858;13.662;2023-08-24T15:35:08;4.72;;;2.22;;
31906;SDS011;18455;50.858;13.662;2023-08-24T15:40:09;2.72;;;2.35;;
31906;SDS011;18455;50.858;13.662;2023-08-24T15:45:13;7.00;;;2.25;;
31906;SDS011;18455;50.858;13.662;2023-08-24T15:50:28;7.95;;;2.70;;
31906;SDS011;18455;50.858;13.662;2023-08-24T15:55:30;7.43;;;2.42;;
31906;SDS011;18455;50.858;13.662;2023-08-24T16:00:31;6.22;;;2.97;;
31906;SDS011;18455;50.858;13.662;2023-08-24T16:11:55;4.93;;;2.60;;
31906;SDS011;18455;50.858;13.662;2023-08-24T16:16:55;2.97;;;2.50;;
31906;SDS011;18455;50.858;13.662;2023-08-24T16:21:56;15.35;;;3.05;;
31906;SDS011;18455;50.858;13.662;2023-08-24T16:26:56;8.55;;;2.90;;
31906;SDS011;18455;50.858;13.662;2023-08-24T16:31:57;7.63;;;3.00;;
31906;SDS011;18455;50.858;13.662;2023-08-24T16:36:58;8.15;;;2.92;;
31906;SDS011;18455;50.858;13.662;2023-08-24T16:41:59;7.80;;;2.90;;
31906;SDS011;18455;50.858;13.662;2023-08-24T16:46:59;10.75;;;3.00;;
31906;SDS011;18455;50.858;13.662;2023-08-24T16:52:00;8.98;;;3.20;;
31906;SDS011;18455;50.858;13.662;2023-08-24T16:57:00;8.43;;;3.00;;
31906;SDS011;18455;50.858;13.662;2023-08-24T17:02:00;7.32;;;3.03;;
31906;SDS011;18455;50.858;13.662;2023-08-24T17:07:01;7.85;;;3.10;;
31906;SDS011;18455;50.858;13.662;2023-08-24T17:12:02;7.57;;;3.08;;
31906;SDS011;18455;50.858;13.662;2023-08-24T17:17:03;7.18;;;2.78;;
31906;SDS011;18455;50.858;13.662;2023-08-24T17:22:03;8.32;;;3.70;;
31906;SDS011;18455;50.858;13.662;2023-08-24T17:27:04;6.28;;;3.00;;
31906;SDS011;18455;50.858;13.662;2023-08-24T17:32:06;6.70;;;3.30;;
31906;SDS011;18455;50.858;13.662;2023-08-24T17:37:06;7.15;;;3.40;;
31906;SDS011;18455;50.858;13.662;2023-08-24T17:42:08;6.35;;;3.33;;
31906;SDS011;18455;50.858;13.662;2023-08-24T17:47:20;5.15;;;3.20;;
31906;SDS011;18455;50.858;13.662;2023-08-24T17:52:44;9.93;;;3.67;;
31906;SDS011;18455;50.858;13.662;2023-08-24T17:57:54;5.40;;;4.10;;
31906;SDS011;18455;50.858;13.662;2023-08-24T18:03:18;9.50;;;4.47;;
31906;SDS011;18455;50.858;13.662;2023-08-24T18:08:28;6.93;;;3.63;;
31906;SDS011;18455;50.858;13.662;2023-08-24T18:15:00;5.28;;;3.92;;
31906;SDS011;18455;50.858;13.662;2023-08-24T18:20:20;8.80;;;4.13;;
31906;SDS011;18455;50.858;13.662;2023-08-24T18:25:35;5.88;;;3.80;;
31906;SDS011;18455;50.858;13.662;2023-08-24T18:31:04;4.90;;;4.00;;
31906;SDS011;18455;50.858;13.662;2023-08-24T18:36:28;6.10;;;4.30;;
31906;SDS011;18455;50.858;13.662;2023-08-24T18:41:56;9.50;;;4.38;;
31906;SDS011;18455;50.858;13.662;2023-08-24T18:47:34;8.05;;;4.18;;
31906;SDS011;18455;50.858;13.662;2023-08-24T18:52:48;9.57;;;4.78;;
31906;SDS011;18455;50.858;13.662;2023-08-24T18:58:12;7.85;;;4.28;;
31906;SDS011;18455;50.858;13.662;2023-08-24T19:03:23;8.50;;;4.60;;
31906;SDS011;18455;50.858;13.662;2023-08-24T19:08:50;4.75;;;4.25;;
31906;SDS011;18455;50.858;13.662;2023-08-24T19:14:17;10.43;;;4.57;;
31906;SDS011;18455;50.858;13.662;2023-08-24T19:19:30;6.93;;;4.47;;
31906;SDS011;18455;50.858;13.662;2023-08-24T19:24:31;13.57;;;4.90;;
31906;SDS011;18455;50.858;13.662;2023-08-24T19:29:48;10.65;;;4.68;;
31906;SDS011;18455;50.858;13.662;2023-08-24T19:41:38;5.97;;;5.38;;
31906;SDS011;18455;50.858;13.662;2023-08-24T19:46:52;6.43;;;4.80;;
31906;SDS011;18455;50.858;13.662;2023-08-24T19:52:15;6.53;;;4.43;;
31906;SDS011;18455;50.858;13.662;2023-08-24T19:58:04;7.75;;;5.25;;
31906;SDS011;18455;50.858;13.662;2023-08-24T20:03:48;10.55;;;5.18;;
31906;SDS011;18455;50.858;13.662;2023-08-24T20:09:59;10.25;;;4.72;;
31906;SDS011;18455;50.858;13.662;2023-08-24T20:40:30;6.80;;;4.68;;
31906;SDS011;18455;50.858;13.662;2023-08-24T20:52:53;11.18;;;5.10;;
31906;SDS011;18455;50.858;13.662;2023-08-24T20:59:11;9.65;;;4.97;;
31906;SDS011;18455;50.858;13.662;2023-08-24T21:11:55;8.90;;;4.30;;
31906;SDS011;18455;50.858;13.662;2023-08-24T21:17:41;5.78;;;4.00;;
31906;SDS011;18455;50.858;13.662;2023-08-24T22:34:15;7.22;;;3.92;;
31906;SDS011;18455;50.858;13.662;2023-08-24T22:51:12;6.97;;;4.40;;
31906;SDS011;18455;50.858;13.662;2023-08-24T22:56:13;6.30;;;3.70;;
31906;SDS011;18455;50.858;13.662;2023-08-24T23:01:16;6.35;;;3.85;;
31906;SDS011;18455;50.858;13.662;2023-08-24T23:06:19;7.28;;;4.10;;
31906;SDS011;18455;50.858;13.662;2023-08-24T23:11:20;8.60;;;4.15;;
31906;SDS011;18455;50.858;13.662;2023-08-24T23:16:20;7.88;;;4.30;;
31906;SDS011;18455;50.858;13.662;2023-08-24T23:21:21;7.30;;;4.07;;
31906;SDS011;18455;50.858;13.662;2023-08-24T23:26:23;10.93;;;4.00;;
31906;SDS011;18455;50.858;13.662;2023-08-24T23:31:23;4.43;;;3.55;;
31906;SDS011;18455;50.858;13.662;2023-08-24T23:36:23;5.55;;;4.30;;
31906;SDS011;18455;50.858;13.662;2023-08-24T23:41:24;9.40;;;3.83;;
31906;SDS011;18455;50.858;13.662;2023-08-24T23:46:24;6.63;;;4.05;;
31906;SDS011;18455;50.858;13.662;2023-08-24T23:51:25;5.55;;;3.65;;
31906;SDS011;18455;50.858;13.662;2023-08-24T23:56:26;7.47;;;3.92;;
